Temp: 9.8°C   Baro: 991.5mb
  Wind: 0.9mph   Dir: ESE (110°)
  Rain: 3.6mm (0.0mm/hr)
  Solar: 0W/m2  Hum: 88%
 
Bath Spa Weather Station Historical Data
Daily Summary for August 1, 2019 Units:  Both    English   Metric
Daily Weekly Monthly Yearly Custom
  High: Low: Average:
Temperature: 64.1 °F /  17.8 °C 49.8 °F /  9.9 °C 57.9 °F /  14.4 °C
Dew Point: 58.4 °F /  14.7 °C 45.5 °F /  7.5 °C 54.2 °F /  12.3 °C
Humidity: 93% 75.3% 88%
Wind Speed: 10.2mph /  16.4km/h - 3.4mph /  5.5km/h
Wind Gust: 22mph /  35.4km/h - -
Wind- - South
Pressure: 29.83 in /  1010 hPa 29.42 in /  996.2 hPa -
Precipitation: 0.39 in /  9.91 mm    
Historical Graphs
 
 
Tabular Data for August 1, 2019
Time Temperature Dew Point Pressure Wind Wind Speed Wind Gust Humidity Rainfall Rate (Hourly) solar
00:04 59 °F /  15 °C 55.4 °F /  13 °C 29.58in /  1001.6hPa SW 7.5mph /  12.1km/h 12mph /  19.3km/h 88% 0.00in /  0mm 0 W/m2
00:09 59 °F /  15 °C 55.4 °F /  13 °C 29.58in /  1001.6hPa SW 8.7mph /  14km/h 15mph /  24.1km/h 88% 0.00in /  0mm 0 W/m2
00:14 59.1 °F /  15.1 °C 55.5 °F /  13.1 °C 29.58in /  1001.6hPa SW 6.5mph /  10.5km/h 15mph /  24.1km/h 88% 0.00in /  0mm 0 W/m2
00:19 59 °F /  15 °C 55.4 °F /  13 °C 29.58in /  1001.6hPa SW 6.1mph /  9.8km/h 12mph /  19.3km/h 88% 0.00in /  0mm 0 W/m2
00:24 59 °F /  15 °C 55.4 °F /  13 °C 29.58in /  1001.6hPa WSW 6.6mph /  10.6km/h 12mph /  19.3km/h 88% 0.00in /  0mm 0 W/m2
00:29 59 °F /  15 °C 55.4 °F /  13 °C 29.58in /  1001.6hPa WSW 6.1mph /  9.8km/h 11mph /  17.7km/h 88% 0.00in /  0mm 0 W/m2
00:34 59 °F /  15 °C 55.4 °F /  13 °C 29.57in /  1001.2hPa SW 7mph /  11.3km/h 12mph /  19.3km/h 88% 0.00in /  0mm 0 W/m2
00:39 59 °F /  15 °C 55.4 °F /  13 °C 29.57in /  1001.2hPa SW 6.3mph /  10.1km/h 12mph /  19.3km/h 88% 0.00in /  0mm 0 W/m2
00:44 58.8 °F /  14.9 °C 55.2 °F /  12.9 °C 29.57in /  1001.2hPa SW 6.2mph /  10km/h 12mph /  19.3km/h 88% 0.00in /  0mm 0 W/m2
00:49 58.8 °F /  14.9 °C 55.2 °F /  12.9 °C 29.56in /  1000.9hPa WSW 5.1mph /  8.2km/h 9mph /  14.5km/h 88% 0.00in /  0mm 0 W/m2
00:54 58.7 °F /  14.8 °C 55.1 °F /  12.8 °C 29.56in /  1000.9hPa SW 6.2mph /  10km/h 10mph /  16.1km/h 88% 0.00in /  0mm 0 W/m2
00:59 58.6 °F /  14.8 °C 55 °F /  12.8 °C 29.57in /  1001.2hPa WSW 7.3mph /  11.7km/h 12mph /  19.3km/h 88% 0.00in /  0mm 0 W/m2
01:04 58.6 °F /  14.8 °C 55 °F /  12.8 °C 29.57in /  1001.2hPa SW 6.5mph /  10.5km/h 13mph /  20.9km/h 88% 0.00in /  0mm 0 W/m2
01:09 58.6 °F /  14.8 °C 55 °F /  12.8 °C 29.56in /  1000.9hPa SW 6mph /  9.7km/h 10mph /  16.1km/h 88% 0.00in /  0mm 0 W/m2
01:14 58.5 °F /  14.7 °C 54.9 °F /  12.7 °C 29.57in /  1001.2hPa SW 7.6mph /  12.2km/h 14mph /  22.5km/h 88% 0.00in /  0mm 0 W/m2
01:19 58.6 °F /  14.8 °C 55 °F /  12.8 °C 29.57in /  1001.2hPa WSW 5.3mph /  8.5km/h 12mph /  19.3km/h 88% 0.00in /  0mm 0 W/m2
01:24 58.5 °F /  14.7 °C 54.9 °F /  12.7 °C 29.56in /  1000.9hPa SW 4.3mph /  6.9km/h 9mph /  14.5km/h 88% 0.00in /  0mm 0 W/m2
01:29 58.5 °F /  14.7 °C 54.9 °F /  12.7 °C 29.57in /  1001.2hPa SW 4.8mph /  7.7km/h 10mph /  16.1km/h 88% 0.00in /  0mm 0 W/m2
01:34 58.5 °F /  14.7 °C 54.9 °F /  12.7 °C 29.56in /  1000.9hPa WSW 4.6mph /  7.4km/h 8mph /  12.9km/h 88% 0.00in /  0mm 0 W/m2
01:39 58.4 °F /  14.7 °C 54.8 °F /  12.7 °C 29.56in /  1000.9hPa SW 4.6mph /  7.4km/h 8mph /  12.9km/h 88% 0.00in /  0mm 0 W/m2
01:44 58.4 °F /  14.7 °C 54.8 °F /  12.7 °C 29.56in /  1000.9hPa SW 5.1mph /  8.2km/h 8mph /  12.9km/h 88% 0.00in /  0mm 0 W/m2
01:49 58.5 °F /  14.7 °C 54.9 °F /  12.7 °C 29.55in /  1000.6hPa SW 5.1mph /  8.2km/h 9mph /  14.5km/h 88% 0.00in /  0mm 0 W/m2
01:54 58.4 °F /  14.7 °C 54.8 °F /  12.7 °C 29.55in /  1000.6hPa SW 4.8mph /  7.7km/h 9mph /  14.5km/h 88% 0.00in /  0mm 0 W/m2
01:59 58.3 °F /  14.6 °C 54.7 °F /  12.6 °C 29.55in /  1000.6hPa SW 5.2mph /  8.4km/h 10mph /  16.1km/h 88% 0.00in /  0mm 0 W/m2
02:04 58.5 °F /  14.7 °C 54.9 °F /  12.7 °C 29.55in /  1000.6hPa SW 4.3mph /  6.9km/h 8mph /  12.9km/h 88% 0.00in /  0mm 0 W/m2
02:09 58.5 °F /  14.7 °C 54.9 °F /  12.7 °C 29.55in /  1000.6hPa SW 3.8mph /  6.1km/h 8mph /  12.9km/h 88% 0.00in /  0mm 0 W/m2
02:14 58.4 °F /  14.7 °C 54.8 °F /  12.7 °C 29.54in /  1000.2hPa SW 4.3mph /  6.9km/h 7mph /  11.3km/h 88% 0.00in /  0mm 0 W/m2
02:19 58.3 °F /  14.6 °C 54.7 °F /  12.6 °C 29.54in /  1000.2hPa SW 2.9mph /  4.7km/h 5mph /  8km/h 88% 0.00in /  0mm 0 W/m2
02:24 58.2 °F /  14.6 °C 54.6 °F /  12.6 °C 29.54in /  1000.2hPa SW 2.3mph /  3.7km/h 5mph /  8km/h 88% 0.00in /  0mm 0 W/m2
02:29 58.1 °F /  14.5 °C 54.5 °F /  12.5 °C 29.54in /  1000.2hPa SW 3.1mph /  5km/h 5mph /  8km/h 88% 0.00in /  0mm 0 W/m2
02:34 57.9 °F /  14.4 °C 54.6 °F /  12.6 °C 29.53in /  999.9hPa SW 2.4mph /  3.9km/h 6mph /  9.7km/h 88.6% 0.00in /  0mm 0 W/m2
02:39 57.9 °F /  14.4 °C 54.7 °F /  12.6 °C 29.53in /  999.9hPa SW 1.3mph /  2.1km/h 5mph /  8km/h 89% 0.00in /  0mm 0 W/m2
02:44 57.7 °F /  14.3 °C 54.5 °F /  12.5 °C 29.52in /  999.5hPa SW 2.1mph /  3.4km/h 5mph /  8km/h 89% 0.00in /  0mm 0 W/m2
02:49 57.7 °F /  14.3 °C 54.5 °F /  12.5 °C 29.52in /  999.5hPa SSW 3.8mph /  6.1km/h 7mph /  11.3km/h 89% 0.00in /  0mm 0 W/m2
02:54 57.8 °F /  14.3 °C 54.6 °F /  12.6 °C 29.52in /  999.5hPa SSW 4.3mph /  6.9km/h 8mph /  12.9km/h 89% 0.00in /  0mm 0 W/m2
02:59 57.9 °F /  14.4 °C 54.7 °F /  12.6 °C 29.52in /  999.5hPa SW 3.8mph /  6.1km/h 9mph /  14.5km/h 89% 0.00in /  0mm 0 W/m2
03:04 57.9 °F /  14.4 °C 54.8 °F /  12.7 °C 29.52in /  999.5hPa SW 5.2mph /  8.4km/h 11mph /  17.7km/h 89.2% 0.00in /  0mm 0 W/m2
03:09 57.9 °F /  14.4 °C 54.7 °F /  12.6 °C 29.52in /  999.5hPa SW 4.1mph /  6.6km/h 8mph /  12.9km/h 89% 0.00in /  0mm 0 W/m2
03:14 58.1 °F /  14.5 °C 54.9 °F /  12.7 °C 29.51in /  999.2hPa SW 4.6mph /  7.4km/h 8mph /  12.9km/h 89% 0.00in /  0mm 0 W/m2
03:19 58.1 °F /  14.5 °C 54.9 °F /  12.7 °C 29.51in /  999.2hPa SW 1.8mph /  2.9km/h 6mph /  9.7km/h 89% 0.00in /  0mm 0 W/m2
03:24 58.1 °F /  14.5 °C 54.9 °F /  12.7 °C 29.51in /  999.2hPa SW 2.1mph /  3.4km/h 6mph /  9.7km/h 89% 0.00in /  0mm 0 W/m2
03:29 58 °F /  14.4 °C 54.8 °F /  12.7 °C 29.51in /  999.2hPa Calm   6mph /  9.7km/h 89% 0.00in /  0mm 0 W/m2
03:34 58 °F /  14.4 °C 54.8 °F /  12.7 °C 29.51in /  999.2hPa SW 0.4mph /  0.6km/h 3mph /  4.8km/h 89% 0.00in /  0mm 0 W/m2
03:39 58.1 °F /  14.5 °C 54.9 °F /  12.7 °C 29.51in /  999.2hPa SW 0.6mph /  1km/h 5mph /  8km/h 89% 0.00in /  0mm 0 W/m2
03:44 58.1 °F /  14.5 °C 54.9 °F /  12.7 °C 29.50in /  998.9hPa SW 0.9mph /  1.4km/h 5mph /  8km/h 89% 0.00in /  0mm 0 W/m2
03:49 58 °F /  14.4 °C 54.8 °F /  12.7 °C 29.50in /  998.9hPa SW 0.8mph /  1.3km/h 3mph /  4.8km/h 89% 0.00in /  0mm 0 W/m2
03:54 57.9 °F /  14.4 °C 54.7 °F /  12.6 °C 29.50in /  998.9hPa WSW 3mph /  4.8km/h 7mph /  11.3km/h 89% 0.00in /  0mm 0 W/m2
03:59 58 °F /  14.4 °C 55 °F /  12.8 °C 29.50in /  998.9hPa West 2.2mph /  3.5km/h 8mph /  12.9km/h 89.6% 0.00in /  0mm 0 W/m2
04:04 58.2 °F /  14.6 °C 55.3 °F /  12.9 °C 29.50in /  998.9hPa West 3.5mph /  5.6km/h 8mph /  12.9km/h 90% 0.00in /  0mm 0 W/m2
04:09 58.5 °F /  14.7 °C 55.5 °F /  13.1 °C 29.50in /  998.9hPa SSW 4.4mph /  7.1km/h 10mph /  16.1km/h 89.9% 0.00in /  0mm 0 W/m2
04:14 58.5 °F /  14.7 °C 55.2 °F /  12.9 °C 29.50in /  998.9hPa SW 1.3mph /  2.1km/h 6mph /  9.7km/h 89% 0.00in /  0mm 0 W/m2
04:19 58.5 °F /  14.7 °C 55.3 °F /  12.9 °C 29.49in /  998.5hPa SW 1.3mph /  2.1km/h 8mph /  12.9km/h 89.2% 0.00in /  0mm 0 W/m2
04:24 58.4 °F /  14.7 °C 55.4 °F /  13 °C 29.49in /  998.5hPa SW 0.7mph /  1.1km/h 5mph /  8km/h 89.7% 0.00in /  0mm 0 W/m2
04:29 58.4 °F /  14.7 °C 55.5 °F /  13.1 °C 29.49in /  998.5hPa SW 0.1mph /  0.2km/h 1mph /  1.6km/h 90% 0.00in /  0mm 0 W/m2
04:34 58.3 °F /  14.6 °C 55.4 °F /  13 °C 29.49in /  998.5hPa Calm     90% 0.00in /  0mm 0 W/m2
04:39 58.3 °F /  14.6 °C 55.4 °F /  13 °C 29.48in /  998.2hPa Calm     90% 0.00in /  0mm 0 W/m2
04:44 58.3 °F /  14.6 °C 55.4 °F /  13 °C 29.48in /  998.2hPa SW 0.7mph /  1.1km/h 3mph /  4.8km/h 90% 0.00in /  0mm 0 W/m2
04:49 58.3 °F /  14.6 °C 55.4 °F /  13 °C 29.48in /  998.2hPa SW 0.1mph /  0.2km/h 1mph /  1.6km/h 90% 0.00in /  0mm 0 W/m2
04:54 58.3 °F /  14.6 °C 55.4 °F /  13 °C 29.47in /  997.9hPa SW 0.5mph /  0.8km/h 3mph /  4.8km/h 90% 0.00in /  0mm 0 W/m2
04:59 58.3 °F /  14.6 °C 55.4 °F /  13 °C 29.48in /  998.2hPa SW 1.9mph /  3.1km/h 4mph /  6.4km/h 90% 0.00in /  0mm 0 W/m2
05:04 58.3 °F /  14.6 °C 55.4 °F /  13 °C 29.47in /  997.9hPa SW 0.8mph /  1.3km/h 5mph /  8km/h 90% 0.00in /  0mm 0 W/m2
05:09 58.3 °F /  14.6 °C 55.4 °F /  13 °C 29.47in /  997.9hPa SW 2mph /  3.2km/h 5mph /  8km/h 90% 0.00in /  0mm 0 W/m2
05:14 58.3 °F /  14.6 °C 55.6 °F /  13.1 °C 29.47in /  997.9hPa SW 3.3mph /  5.3km/h 7mph /  11.3km/h 91% 0.00in /  0mm 0 W/m2
05:19 58.3 °F /  14.6 °C 55.6 °F /  13.1 °C 29.47in /  997.9hPa SSW 1.3mph /  2.1km/h 7mph /  11.3km/h 91% 0.00in /  0mm 0 W/m2
05:24 58.3 °F /  14.6 °C 55.6 °F /  13.1 °C 29.47in /  997.9hPa SSW 0.2mph /  0.3km/h 2mph /  3.2km/h 91% 0.00in /  0mm 0 W/m2
05:29 58.2 °F /  14.6 °C 55.5 °F /  13.1 °C 29.47in /  997.9hPa SSW 1mph /  1.6km/h 4mph /  6.4km/h 91% 0.00in /  0mm 0 W/m2
05:34 58.2 °F /  14.6 °C 55.5 °F /  13.1 °C 29.47in /  997.9hPa SSW 0.5mph /  0.8km/h 3mph /  4.8km/h 91% 0.00in /  0mm 0 W/m2
05:39 58.1 °F /  14.5 °C 55.4 °F /  13 °C 29.47in /  997.9hPa SSW 0.3mph /  0.5km/h 2mph /  3.2km/h 91% 0.00in /  0mm 0 W/m2
05:44 58.1 °F /  14.5 °C 55.4 °F /  13 °C 29.46in /  997.5hPa SSW 1.5mph /  2.4km/h 5mph /  8km/h 91% 0.01in /  0.25mm 0 W/m2
05:49 58.1 °F /  14.5 °C 55.4 °F /  13 °C 29.46in /  997.5hPa SW 3.7mph /  6km/h 7mph /  11.3km/h 91% 0.01in /  0.25mm 0 W/m2
05:54 58.1 °F /  14.5 °C 55.4 °F /  13 °C 29.46in /  997.5hPa SW 1.6mph /  2.6km/h 7mph /  11.3km/h 91% 0.01in /  0.25mm 0 W/m2
05:59 58.1 °F /  14.5 °C 55.4 °F /  13 °C 29.46in /  997.5hPa SW 2.2mph /  3.5km/h 5mph /  8km/h 91% 0.01in /  0.25mm 0 W/m2
06:04 58.1 °F /  14.5 °C 55.7 °F /  13.2 °C 29.46in /  997.5hPa SW 2.6mph /  4.2km/h 5mph /  8km/h 91.8% 0.01in /  0.25mm 0 W/m2
06:09 58 °F /  14.4 °C 55.7 °F /  13.2 °C 29.46in /  997.5hPa SSW 3mph /  4.8km/h 6mph /  9.7km/h 92% 0.01in /  0.25mm 0 W/m2
06:14 57.9 °F /  14.4 °C 55.6 °F /  13.1 °C 29.46in /  997.5hPa SSW 2.7mph /  4.3km/h 6mph /  9.7km/h 92% 0.01in /  0.25mm 0 W/m2
06:19 57.9 °F /  14.4 °C 55.6 °F /  13.1 °C 29.46in /  997.5hPa SSW 2.3mph /  3.7km/h 6mph /  9.7km/h 92% 0.01in /  0.25mm 0 W/m2
06:24 57.9 °F /  14.4 °C 55.6 °F /  13.1 °C 29.46in /  997.5hPa SSW 3.1mph /  5km/h 6mph /  9.7km/h 92% 0.01in /  0.25mm 0 W/m2
06:29 57.9 °F /  14.4 °C 55.6 °F /  13.1 °C 29.46in /  997.5hPa SW 2.1mph /  3.4km/h 6mph /  9.7km/h 92% 0.01in /  0.25mm 0 W/m2
06:34 57.9 °F /  14.4 °C 55.6 °F /  13.1 °C 29.46in /  997.5hPa SW 5.4mph /  8.7km/h 9mph /  14.5km/h 92% 0.01in /  0.25mm 0 W/m2
06:39 57.9 °F /  14.4 °C 55.6 °F /  13.1 °C 29.46in /  997.5hPa SW 4mph /  6.4km/h 9mph /  14.5km/h 92% 0.01in /  0.25mm 0 W/m2
06:44 57.9 °F /  14.4 °C 55.6 °F /  13.1 °C 29.46in /  997.5hPa SW 3.6mph /  5.8km/h 10mph /  16.1km/h 92% 0.00in /  0mm 0 W/m2
06:49 57.9 °F /  14.4 °C 55.6 °F /  13.1 °C 29.46in /  997.5hPa SW 4.7mph /  7.6km/h 10mph /  16.1km/h 92% 0.00in /  0mm 0 W/m2
06:54 57.8 °F /  14.3 °C 55.5 °F /  13.1 °C 29.45in /  997.2hPa SSW 2.6mph /  4.2km/h 6mph /  9.7km/h 92% 0.00in /  0mm 0 W/m2
06:59 57.7 °F /  14.3 °C 55.4 °F /  13 °C 29.45in /  997.2hPa SSW 2.4mph /  3.9km/h 5mph /  8km/h 92% 0.00in /  0mm 0 W/m2
07:04 57.7 °F /  14.3 °C 55.4 °F /  13 °C 29.45in /  997.2hPa SSW 2.5mph /  4km/h 7mph /  11.3km/h 92% 0.00in /  0mm 0 W/m2
07:09 57.7 °F /  14.3 °C 55.4 °F /  13 °C 29.45in /  997.2hPa SW 4.2mph /  6.8km/h 9mph /  14.5km/h 92% 0.00in /  0mm 0 W/m2
07:14 57.8 °F /  14.3 °C 55.5 °F /  13.1 °C 29.45in /  997.2hPa SW 3.2mph /  5.1km/h 8mph /  12.9km/h 92% 0.00in /  0mm 5 W/m2
07:19 57.9 °F /  14.4 °C 55.6 °F /  13.1 °C 29.45in /  997.2hPa SSW 3.4mph /  5.5km/h 7mph /  11.3km/h 92% 0.00in /  0mm 7 W/m2
07:24 57.9 °F /  14.4 °C 55.6 °F /  13.1 °C 29.45in /  997.2hPa SW 0.8mph /  1.3km/h 4mph /  6.4km/h 92% 0.00in /  0mm 11 W/m2
07:29 57.9 °F /  14.4 °C 55.6 °F /  13.1 °C 29.45in /  997.2hPa SW 1.6mph /  2.6km/h 5mph /  8km/h 92% 0.00in /  0mm 12 W/m2
07:34 57.9 °F /  14.4 °C 55.4 °F /  13 °C 29.45in /  997.2hPa SSW 1.1mph /  1.8km/h 6mph /  9.7km/h 91.6% 0.00in /  0mm 19 W/m2
07:39 57.9 °F /  14.4 °C 55.2 °F /  12.9 °C 29.45in /  997.2hPa SSW 1.5mph /  2.4km/h 4mph /  6.4km/h 91% 0.00in /  0mm 26 W/m2
07:44 57.9 °F /  14.4 °C 55.2 °F /  12.9 °C 29.45in /  997.2hPa SSW 0.7mph /  1.1km/h 5mph /  8km/h 91% 0.00in /  0mm 32 W/m2
07:49 57.9 °F /  14.4 °C 55.2 °F /  12.9 °C 29.45in /  997.2hPa Calm   4mph /  6.4km/h 91% 0.01in /  0.25mm 33 W/m2
07:54 57.9 °F /  14.4 °C 55.2 °F /  12.9 °C 29.45in /  997.2hPa SSW 0.3mph /  0.5km/h 5mph /  8km/h 91% 0.01in /  0.25mm 53 W/m2
07:59 57.9 °F /  14.4 °C 55.2 °F /  12.9 °C 29.45in /  997.2hPa Calm     91% 0.01in /  0.25mm 51 W/m2
08:04 58 °F /  14.4 °C 55.3 °F /  12.9 °C 29.45in /  997.2hPa Calm     91% 0.01in /  0.25mm 44 W/m2
08:09 58 °F /  14.4 °C 55.6 °F /  13.1 °C 29.45in /  997.2hPa SSW 0.2mph /  0.3km/h 1mph /  1.6km/h 91.6% 0.03in /  0.76mm 32 W/m2
08:14 57.9 °F /  14.4 °C 55.6 °F /  13.1 °C 29.45in /  997.2hPa Calm   1mph /  1.6km/h 92% 0.06in /  1.52mm 35 W/m2
08:19 57.9 °F /  14.4 °C 55.6 °F /  13.1 °C 29.44in /  996.8hPa SSW 0.1mph /  0.2km/h 1mph /  1.6km/h 92% 0.06in /  1.52mm 40 W/m2
08:24 57.8 °F /  14.3 °C 55.5 °F /  13.1 °C 29.45in /  997.2hPa WSW 1.2mph /  1.9km/h 4mph /  6.4km/h 92% 0.06in /  1.52mm 44 W/m2
08:29 57.7 °F /  14.3 °C 55.4 °F /  13 °C 29.44in /  996.8hPa Calm   1mph /  1.6km/h 92% 0.06in /  1.52mm 47 W/m2
08:34 57.8 °F /  14.3 °C 55.5 °F /  13.1 °C 29.44in /  996.8hPa West 0.3mph /  0.5km/h 3mph /  4.8km/h 92% 0.06in /  1.52mm 58 W/m2
08:39 57.9 °F /  14.4 °C 55.6 °F /  13.1 °C 29.44in /  996.8hPa West 0.5mph /  0.8km/h 3mph /  4.8km/h 92% 0.06in /  1.52mm 63 W/m2
08:44 57.8 °F /  14.3 °C 55.5 °F /  13.1 °C 29.44in /  996.8hPa SSW 3.6mph /  5.8km/h 7mph /  11.3km/h 92% 0.06in /  1.52mm 95 W/m2
08:49 57.7 °F /  14.3 °C 55.4 °F /  13 °C 29.44in /  996.8hPa South 2.6mph /  4.2km/h 5mph /  8km/h 92% 0.06in /  1.52mm 95 W/m2
08:54 57.7 °F /  14.3 °C 55.4 °F /  13 °C 29.44in /  996.8hPa South 1mph /  1.6km/h 5mph /  8km/h 92% 0.07in /  1.78mm 113 W/m2
08:59 57.8 °F /  14.3 °C 55.5 °F /  13.1 °C 29.44in /  996.8hPa South 0.2mph /  0.3km/h 4mph /  6.4km/h 92% 0.07in /  1.78mm 174 W/m2
09:04 58 °F /  14.4 °C 55.9 °F /  13.3 °C 29.43in /  996.5hPa South 0.6mph /  1km/h 3mph /  4.8km/h 92.7% 0.08in /  2.03mm 179 W/m2
09:09 58.1 °F /  14.5 °C 56.1 °F /  13.4 °C 29.43in /  996.5hPa South 1mph /  1.6km/h 4mph /  6.4km/h 93% 0.08in /  2.03mm 220 W/m2
09:14 58.2 °F /  14.6 °C 56.2 °F /  13.4 °C 29.43in /  996.5hPa South 0.1mph /  0.2km/h 3mph /  4.8km/h 93% 0.04in /  1.02mm 279 W/m2
09:19 58.6 °F /  14.8 °C 56.6 °F /  13.7 °C 29.43in /  996.5hPa SW 3.3mph /  5.3km/h 7mph /  11.3km/h 93% 0.03in /  0.76mm 269 W/m2
09:24 58.6 °F /  14.8 °C 56.6 °F /  13.7 °C 29.43in /  996.5hPa SW 1.7mph /  2.7km/h 7mph /  11.3km/h 93% 0.03in /  0.76mm 192 W/m2
09:29 58.7 °F /  14.8 °C 56.8 °F /  13.8 °C 29.43in /  996.5hPa SW 2.7mph /  4.3km/h 7mph /  11.3km/h 93% 0.04in /  1.02mm 77 W/m2
09:34 58.6 °F /  14.8 °C 56.7 °F /  13.7 °C 29.43in /  996.5hPa SSW 1.7mph /  2.7km/h 7mph /  11.3km/h 93% 0.06in /  1.52mm 44 W/m2
09:39 58.6 °F /  14.8 °C 56.7 °F /  13.7 °C 29.44in /  996.8hPa SW 2.3mph /  3.7km/h 6mph /  9.7km/h 93% 0.06in /  1.52mm 62 W/m2
09:44 58.6 °F /  14.8 °C 56.6 °F /  13.7 °C 29.44in /  996.8hPa SW 2.2mph /  3.5km/h 6mph /  9.7km/h 93% 0.06in /  1.52mm 62 W/m2
09:49 58.5 °F /  14.7 °C 56.6 °F /  13.7 °C 29.43in /  996.5hPa SW 2.1mph /  3.4km/h 8mph /  12.9km/h 93% 0.06in /  1.52mm 42 W/m2
09:54 58.6 °F /  14.8 °C 56.7 °F /  13.7 °C 29.44in /  996.8hPa SW 0.4mph /  0.6km/h 3mph /  4.8km/h 93% 0.06in /  1.52mm 30 W/m2
09:59 58.6 °F /  14.8 °C 56.7 °F /  13.7 °C 29.44in /  996.8hPa SW 1mph /  1.6km/h 5mph /  8km/h 93% 0.06in /  1.52mm 18 W/m2
10:04 58.5 °F /  14.7 °C 56.6 °F /  13.7 °C 29.44in /  996.8hPa SW 2.9mph /  4.7km/h 6mph /  9.7km/h 93% 0.05in /  1.27mm 33 W/m2
10:09 58.3 °F /  14.6 °C 56.3 °F /  13.5 °C 29.44in /  996.8hPa SW 1.2mph /  1.9km/h 6mph /  9.7km/h 93% 0.05in /  1.27mm 72 W/m2
10:14 58.3 °F /  14.6 °C 56.3 °F /  13.5 °C 29.44in /  996.8hPa SW 1.3mph /  2.1km/h 6mph /  9.7km/h 93% 0.05in /  1.27mm 125 W/m2
10:19 58.4 °F /  14.7 °C 56.4 °F /  13.6 °C 29.44in /  996.8hPa SW 0.1mph /  0.2km/h 6mph /  9.7km/h 93% 0.05in /  1.27mm 149 W/m2
10:24 58.5 °F /  14.7 °C 56.5 °F /  13.6 °C 29.44in /  996.8hPa SW 0.1mph /  0.2km/h 6mph /  9.7km/h 93% 0.05in /  1.27mm 158 W/m2
10:29 58.6 °F /  14.8 °C 56.7 °F /  13.7 °C 29.44in /  996.8hPa SW 0.1mph /  0.2km/h 1mph /  1.6km/h 93% 0.05in /  1.27mm 195 W/m2
10:34 58.6 °F /  14.8 °C 56.6 °F /  13.7 °C 29.44in /  996.8hPa SW 0.4mph /  0.6km/h 3mph /  4.8km/h 93% 0.04in /  1.02mm 211 W/m2
10:39 58.6 °F /  14.8 °C 56.6 °F /  13.7 °C 29.44in /  996.8hPa SW 0.3mph /  0.5km/h 3mph /  4.8km/h 93% 0.02in /  0.51mm 343 W/m2
10:44 58.6 °F /  14.8 °C 56.6 °F /  13.7 °C 29.44in /  996.8hPa SW 0.3mph /  0.5km/h 3mph /  4.8km/h 92.7% 0.02in /  0.51mm 262 W/m2
10:49 59.3 °F /  15.2 °C 57.1 °F /  13.9 °C 29.44in /  996.8hPa SW 0.8mph /  1.3km/h 4mph /  6.4km/h 92.2% 0.01in /  0.25mm 608 W/m2
10:54 59.7 °F /  15.4 °C 57.3 °F /  14.1 °C 29.44in /  996.8hPa SW 4.7mph /  7.6km/h 8mph /  12.9km/h 91.6% 0.00in /  0mm 645 W/m2
10:59 60.2 °F /  15.7 °C 57.3 °F /  14.1 °C 29.44in /  996.8hPa WSW 5.4mph /  8.7km/h 11mph /  17.7km/h 90.4% 0.00in /  0mm 512 W/m2
11:04 60.6 °F /  15.9 °C 57.5 °F /  14.2 °C 29.44in /  996.8hPa SW 4.1mph /  6.6km/h 11mph /  17.7km/h 89.2% 0.00in /  0mm 475 W/m2
11:09 60.9 °F /  16.1 °C 57.2 °F /  14 °C 29.44in /  996.8hPa WSW 6.2mph /  10km/h 11mph /  17.7km/h 87.8% 0.00in /  0mm 422 W/m2
11:14 61.4 °F /  16.3 °C 57.4 °F /  14.1 °C 29.44in /  996.8hPa SW 4.8mph /  7.7km/h 11mph /  17.7km/h 86.6% 0.00in /  0mm 631 W/m2
11:19 61.5 °F /  16.4 °C 57.1 °F /  13.9 °C 29.44in /  996.8hPa WSW 3.7mph /  6km/h 10mph /  16.1km/h 85.3% 0.00in /  0mm 550 W/m2
11:24 61.5 °F /  16.4 °C 57 °F /  13.9 °C 29.44in /  996.8hPa SW 3.4mph /  5.5km/h 8mph /  12.9km/h 84.9% 0.00in /  0mm 265 W/m2
11:29 61.5 °F /  16.4 °C 56.7 °F /  13.7 °C 29.44in /  996.8hPa WSW 5.8mph /  9.3km/h 11mph /  17.7km/h 84% 0.00in /  0mm 475 W/m2
11:34 61.6 °F /  16.4 °C 56.5 °F /  13.6 °C 29.44in /  996.8hPa WSW 5.2mph /  8.4km/h 11mph /  17.7km/h 83.4% 0.00in /  0mm 403 W/m2
11:39 62.1 °F /  16.7 °C 56.9 °F /  13.8 °C 29.43in /  996.5hPa WSW 4mph /  6.4km/h 10mph /  16.1km/h 83% 0.00in /  0mm 670 W/m2
11:44 62.6 °F /  17 °C 57 °F /  13.9 °C 29.43in /  996.5hPa West 4.5mph /  7.2km/h 9mph /  14.5km/h 82.1% 0.00in /  0mm 696 W/m2
11:49 63.1 °F /  17.3 °C 57.2 °F /  14 °C 29.43in /  996.5hPa WSW 5.4mph /  8.7km/h 12mph /  19.3km/h 81.2% 0.00in /  0mm 710 W/m2
11:54 63 °F /  17.2 °C 56.7 °F /  13.7 °C 29.43in /  996.5hPa West 5.9mph /  9.5km/h 12mph /  19.3km/h 79.9% 0.00in /  0mm 703 W/m2
11:59 62.5 °F /  16.9 °C 55.9 °F /  13.3 °C 29.43in /  996.5hPa SW 7.6mph /  12.2km/h 12mph /  19.3km/h 79% 0.00in /  0mm 186 W/m2
12:04 62.2 °F /  16.8 °C 55.6 °F /  13.1 °C 29.43in /  996.5hPa WSW 5.3mph /  8.5km/h 11mph /  17.7km/h 79% 0.00in /  0mm 206 W/m2
12:09 62.3 °F /  16.8 °C 55.7 °F /  13.2 °C 29.43in /  996.5hPa WSW 4.9mph /  7.9km/h 9mph /  14.5km/h 79.1% 0.00in /  0mm 322 W/m2
12:14 62.1 °F /  16.7 °C 55.8 °F /  13.2 °C 29.43in /  996.5hPa WSW 8.6mph /  13.8km/h 12mph /  19.3km/h 80% 0.00in /  0mm 473 W/m2
12:19 61.7 °F /  16.5 °C 55.2 °F /  12.9 °C 29.43in /  996.5hPa WSW 4.4mph /  7.1km/h 12mph /  19.3km/h 79.6% 0.00in /  0mm 418 W/m2
12:24 61.8 °F /  16.6 °C 55.4 °F /  13 °C 29.43in /  996.5hPa West 5.4mph /  8.7km/h 10mph /  16.1km/h 79.9% 0.00in /  0mm 325 W/m2
12:29 61.9 °F /  16.6 °C 55.6 °F /  13.1 °C 29.43in /  996.5hPa West 3.8mph /  6.1km/h 10mph /  16.1km/h 80% 0.00in /  0mm 308 W/m2
12:34 61.7 °F /  16.5 °C 55.4 °F /  13 °C 29.43in /  996.5hPa WNW 5.4mph /  8.7km/h 12mph /  19.3km/h 80% 0.00in /  0mm 526 W/m2
12:39 62.3 °F /  16.8 °C 56 °F /  13.3 °C 29.43in /  996.5hPa WNW 4mph /  6.4km/h 10mph /  16.1km/h 80% 0.00in /  0mm 582 W/m2
12:44 62.7 °F /  17.1 °C 56.1 °F /  13.4 °C 29.43in /  996.5hPa WNW 3.6mph /  5.8km/h 7mph /  11.3km/h 79.2% 0.00in /  0mm 582 W/m2
12:49 63.2 °F /  17.3 °C 56.2 °F /  13.4 °C 29.43in /  996.5hPa WSW 5.4mph /  8.7km/h 9mph /  14.5km/h 78% 0.00in /  0mm 628 W/m2
12:54 63.5 °F /  17.5 °C 56 °F /  13.3 °C 29.43in /  996.5hPa WSW 4.7mph /  7.6km/h 9mph /  14.5km/h 76.8% 0.00in /  0mm 631 W/m2
12:59 63.9 °F /  17.7 °C 56.1 °F /  13.4 °C 29.42in /  996.2hPa WSW 5.3mph /  8.5km/h 10mph /  16.1km/h 76.1% 0.00in /  0mm 654 W/m2
13:04 64.1 °F /  17.8 °C 56.4 °F /  13.6 °C 29.42in /  996.2hPa WSW 4.3mph /  6.9km/h 9mph /  14.5km/h 76% 0.00in /  0mm 624 W/m2
13:09 63.8 °F /  17.7 °C 55.8 °F /  13.2 °C 29.42in /  996.2hPa WSW 4.2mph /  6.8km/h 8mph /  12.9km/h 75.3% 0.00in /  0mm 141 W/m2
13:14 63.4 °F /  17.4 °C 55.7 °F /  13.2 °C 29.42in /  996.2hPa WSW 2.4mph /  3.9km/h 7mph /  11.3km/h 76.1% 0.00in /  0mm 142 W/m2
13:19 63.3 °F /  17.4 °C 55.9 °F /  13.3 °C 29.42in /  996.2hPa WSW 1.3mph /  2.1km/h 4mph /  6.4km/h 77% 0.00in /  0mm 160 W/m2
13:24 63.3 °F /  17.4 °C 55.9 °F /  13.3 °C 29.42in /  996.2hPa WSW 0.4mph /  0.6km/h 3mph /  4.8km/h 77% 0.00in /  0mm 172 W/m2
13:29 63.1 °F /  17.3 °C 55.7 °F /  13.2 °C 29.42in /  996.2hPa WSW 1.3mph /  2.1km/h 4mph /  6.4km/h 77% 0.00in /  0mm 174 W/m2
13:34 63.1 °F /  17.3 °C 56 °F /  13.3 °C 29.42in /  996.2hPa WSW 2.4mph /  3.9km/h 7mph /  11.3km/h 77.9% 0.00in /  0mm 176 W/m2
13:39 63 °F /  17.2 °C 55.9 °F /  13.3 °C 29.42in /  996.2hPa WSW 1.9mph /  3.1km/h 7mph /  11.3km/h 78% 0.00in /  0mm 174 W/m2
13:44 62.9 °F /  17.2 °C 56 °F /  13.3 °C 29.42in /  996.2hPa SW 2.2mph /  3.5km/h 7mph /  11.3km/h 78.3% 0.00in /  0mm 167 W/m2
13:49 62.9 °F /  17.2 °C 56.2 °F /  13.4 °C 29.42in /  996.2hPa SSW 1.2mph /  1.9km/h 5mph /  8km/h 79% 0.00in /  0mm 153 W/m2
13:54 62.6 °F /  17 °C 56 °F /  13.3 °C 29.43in /  996.5hPa SW 3.8mph /  6.1km/h 8mph /  12.9km/h 79.2% 0.00in /  0mm 158 W/m2
13:59 61.8 °F /  16.6 °C 55.7 °F /  13.2 °C 29.44in /  996.8hPa WNW 7.3mph /  11.7km/h 17mph /  27.4km/h 80.4% 0.06in /  1.52mm 95 W/m2
14:04 59.2 °F /  15.1 °C 54.1 °F /  12.3 °C 29.44in /  996.8hPa West 6mph /  9.7km/h 13mph /  20.9km/h 83.2% 0.19in /  4.83mm 69 W/m2
14:09 58.1 °F /  14.5 °C 54.1 °F /  12.3 °C 29.43in /  996.5hPa WSW 3.1mph /  5km/h 17mph /  27.4km/h 86.2% 0.21in /  5.33mm 102 W/m2
14:14 57.9 °F /  14.4 °C 54.3 °F /  12.4 °C 29.43in /  996.5hPa SW 0.3mph /  0.5km/h 4mph /  6.4km/h 87.6% 0.21in /  5.33mm 128 W/m2
14:19 58.1 °F /  14.5 °C 54.9 °F /  12.7 °C 29.43in /  996.5hPa SW 0.3mph /  0.5km/h 3mph /  4.8km/h 89% 0.21in /  5.33mm 123 W/m2
14:24 58.1 °F /  14.5 °C 55.1 °F /  12.8 °C 29.43in /  996.5hPa SW 0.1mph /  0.2km/h 3mph /  4.8km/h 89.6% 0.21in /  5.33mm 113 W/m2
14:29 57.8 °F /  14.3 °C 55 °F /  12.8 °C 29.44in /  996.8hPa SW 2.4mph /  3.9km/h 5mph /  8km/h 90% 0.21in /  5.33mm 113 W/m2
14:34 57.7 °F /  14.3 °C 54.9 °F /  12.7 °C 29.44in /  996.8hPa SW 1.2mph /  1.9km/h 4mph /  6.4km/h 90% 0.21in /  5.33mm 127 W/m2
14:39 57.8 °F /  14.3 °C 55.2 °F /  12.9 °C 29.43in /  996.5hPa SW 1mph /  1.6km/h 5mph /  8km/h 90.9% 0.21in /  5.33mm 162 W/m2
14:44 58 °F /  14.4 °C 55.3 °F /  12.9 °C 29.43in /  996.5hPa SW 0.9mph /  1.4km/h 3mph /  4.8km/h 91% 0.21in /  5.33mm 255 W/m2
14:49 58.2 °F /  14.6 °C 55.5 °F /  13.1 °C 29.44in /  996.8hPa SW 0.3mph /  0.5km/h 3mph /  4.8km/h 91% 0.21in /  5.33mm 360 W/m2
14:54 58.6 °F /  14.8 °C 56.2 °F /  13.4 °C 29.44in /  996.8hPa SW 0.2mph /  0.3km/h 2mph /  3.2km/h 91.8% 0.21in /  5.33mm 336 W/m2
14:59 58.6 °F /  14.8 °C 56.3 °F /  13.5 °C 29.44in /  996.8hPa SW 0.7mph /  1.1km/h 3mph /  4.8km/h 91.9% 0.20in /  5.08mm 330 W/m2
15:04 58.5 °F /  14.7 °C 56 °F /  13.3 °C 29.44in /  996.8hPa SW 2mph /  3.2km/h 5mph /  8km/h 91.6% 0.11in /  2.79mm 322 W/m2
15:09 58.5 °F /  14.7 °C 56 °F /  13.3 °C 29.44in /  996.8hPa SW 1.1mph /  1.8km/h 5mph /  8km/h 91.5% 0.01in /  0.25mm 294 W/m2
15:14 58.7 °F /  14.8 °C 56 °F /  13.3 °C 29.44in /  996.8hPa SW 1mph /  1.6km/h 3mph /  4.8km/h 91% 0.00in /  0mm 288 W/m2
15:19 59 °F /  15 °C 56.3 °F /  13.5 °C 29.44in /  996.8hPa SW 1.2mph /  1.9km/h 3mph /  4.8km/h 91% 0.00in /  0mm 283 W/m2
15:24 59.3 °F /  15.2 °C 56.6 °F /  13.7 °C 29.44in /  996.8hPa SW 2.3mph /  3.7km/h 7mph /  11.3km/h 91% 0.00in /  0mm 241 W/m2
15:29 59.4 °F /  15.2 °C 56.7 °F /  13.7 °C 29.44in /  996.8hPa WSW 2.9mph /  4.7km/h 7mph /  11.3km/h 90.7% 0.00in /  0mm 230 W/m2
15:34 59.7 °F /  15.4 °C 56.8 °F /  13.8 °C 29.45in /  997.2hPa West 2.8mph /  4.5km/h 7mph /  11.3km/h 90% 0.00in /  0mm 227 W/m2
15:39 59.7 °F /  15.4 °C 56.8 °F /  13.8 °C 29.45in /  997.2hPa West 4mph /  6.4km/h 7mph /  11.3km/h 90% 0.00in /  0mm 260 W/m2
15:44 59.8 °F /  15.4 °C 56.9 °F /  13.8 °C 29.45in /  997.2hPa West 2mph /  3.2km/h 7mph /  11.3km/h 90% 0.00in /  0mm 165 W/m2
15:49 59.8 °F /  15.4 °C 56.9 °F /  13.8 °C 29.45in /  997.2hPa WNW 4mph /  6.4km/h 8mph /  12.9km/h 90% 0.00in /  0mm 410 W/m2
15:54 60.1 °F /  15.6 °C 57.1 °F /  13.9 °C 29.45in /  997.2hPa WNW 1.9mph /  3.1km/h 6mph /  9.7km/h 89.9% 0.00in /  0mm 448 W/m2
15:59 61.1 °F /  16.2 °C 58.2 °F /  14.6 °C 29.45in /  997.2hPa WNW 1.7mph /  2.7km/h 5mph /  8km/h 90% 0.00in /  0mm 469 W/m2
16:04 61.4 °F /  16.3 °C 58.1 °F /  14.5 °C 29.45in /  997.2hPa WNW 1mph /  1.6km/h 5mph /  8km/h 88.8% 0.00in /  0mm 471 W/m2
16:09 62.1 °F /  16.7 °C 58.4 °F /  14.7 °C 29.46in /  997.5hPa WNW 1.1mph /  1.8km/h 4mph /  6.4km/h 87.9% 0.00in /  0mm 464 W/m2
16:14 62.4 °F /  16.9 °C 58.4 °F /  14.7 °C 29.46in /  997.5hPa WNW 2.7mph /  4.3km/h 7mph /  11.3km/h 86.7% 0.00in /  0mm 441 W/m2
16:19 62.1 °F /  16.7 °C 57.5 °F /  14.2 °C 29.46in /  997.5hPa WNW 1.5mph /  2.4km/h 7mph /  11.3km/h 84.9% 0.01in /  0.25mm 323 W/m2
16:24 62.3 °F /  16.8 °C 57.3 °F /  14.1 °C 29.47in /  997.9hPa WNW 5mph /  8km/h 10mph /  16.1km/h 83.3% 0.01in /  0.25mm 350 W/m2
16:29 62.2 °F /  16.8 °C 56.4 °F /  13.6 °C 29.47in /  997.9hPa WNW 3mph /  4.8km/h 10mph /  16.1km/h 81.3% 0.01in /  0.25mm 232 W/m2
16:34 62.2 °F /  16.8 °C 56.2 °F /  13.4 °C 29.47in /  997.9hPa WNW 2.3mph /  3.7km/h 6mph /  9.7km/h 81% 0.01in /  0.25mm 155 W/m2
16:39 61.9 °F /  16.6 °C 55.8 °F /  13.2 °C 29.47in /  997.9hPa WNW 1.9mph /  3.1km/h 6mph /  9.7km/h 80.6% 0.01in /  0.25mm 95 W/m2
16:44 61.6 °F /  16.4 °C 55.3 °F /  12.9 °C 29.47in /  997.9hPa WNW 2.2mph /  3.5km/h 6mph /  9.7km/h 80.1% 0.01in /  0.25mm 88 W/m2
16:49 61.3 °F /  16.3 °C 55.3 °F /  12.9 °C 29.47in /  997.9hPa WNW 2.2mph /  3.5km/h 5mph /  8km/h 81% 0.01in /  0.25mm 97 W/m2
16:54 61.1 °F /  16.2 °C 55.3 °F /  12.9 °C 29.47in /  997.9hPa WNW 2mph /  3.2km/h 4mph /  6.4km/h 81.6% 0.01in /  0.25mm 100 W/m2
16:59 60.8 °F /  16 °C 55.2 °F /  12.9 °C 29.48in /  998.2hPa WNW 0.8mph /  1.3km/h 4mph /  6.4km/h 82% 0.01in /  0.25mm 109 W/m2
17:04 60.9 °F /  16.1 °C 55.7 °F /  13.2 °C 29.48in /  998.2hPa WNW 0.1mph /  0.2km/h 2mph /  3.2km/h 83% 0.01in /  0.25mm 204 W/m2
17:09 61.2 °F /  16.2 °C 55.9 °F /  13.3 °C 29.48in /  998.2hPa WNW 2.2mph /  3.5km/h 4mph /  6.4km/h 83% 0.01in /  0.25mm 193 W/m2
17:14 61 °F /  16.1 °C 55.8 °F /  13.2 °C 29.48in /  998.2hPa WNW 1.1mph /  1.8km/h 4mph /  6.4km/h 83% 0.01in /  0.25mm 95 W/m2
17:19 61 °F /  16.1 °C 55.9 °F /  13.3 °C 29.49in /  998.5hPa WNW 0.3mph /  0.5km/h 2mph /  3.2km/h 83.6% 0.01in /  0.25mm 95 W/m2
17:24 61 °F /  16.1 °C 56.1 °F /  13.4 °C 29.49in /  998.5hPa WNW 0.6mph /  1km/h 3mph /  4.8km/h 84% 0.00in /  0mm 114 W/m2
17:29 60.8 °F /  16 °C 55.9 °F /  13.3 °C 29.49in /  998.5hPa WNW 0.9mph /  1.4km/h 3mph /  4.8km/h 84% 0.00in /  0mm 176 W/m2
17:34 61 °F /  16.1 °C 56.2 °F /  13.4 °C 29.49in /  998.5hPa WNW 1mph /  1.6km/h 5mph /  8km/h 84% 0.00in /  0mm 262 W/m2
17:39 61.4 °F /  16.3 °C 56.6 °F /  13.7 °C 29.50in /  998.9hPa NW 1.8mph /  2.9km/h 7mph /  11.3km/h 84% 0.00in /  0mm 230 W/m2
17:44 61.2 °F /  16.2 °C 56.4 °F /  13.6 °C 29.50in /  998.9hPa NW 3.7mph /  6km/h 7mph /  11.3km/h 84% 0.00in /  0mm 123 W/m2
17:49 60.9 °F /  16.1 °C 56 °F /  13.3 °C 29.51in /  999.2hPa NW 2.9mph /  4.7km/h 6mph /  9.7km/h 84% 0.00in /  0mm 98 W/m2
17:54 60.5 °F /  15.8 °C 55.9 °F /  13.3 °C 29.51in /  999.2hPa NNW 4.1mph /  6.6km/h 8mph /  12.9km/h 84.4% 0.00in /  0mm 69 W/m2
17:59 60.4 °F /  15.8 °C 55.9 °F /  13.3 °C 29.52in /  999.5hPa North 2.9mph /  4.7km/h 9mph /  14.5km/h 85.1% 0.00in /  0mm 40 W/m2
18:04 60.1 °F /  15.6 °C 56 °F /  13.3 °C 29.52in /  999.5hPa NE 3.9mph /  6.3km/h 9mph /  14.5km/h 86% 0.01in /  0.25mm 40 W/m2
18:09 59 °F /  15 °C 54.9 °F /  12.7 °C 29.53in /  999.9hPa NE 5.1mph /  8.2km/h 11mph /  17.7km/h 86% 0.01in /  0.25mm 35 W/m2
18:14 58.5 °F /  14.7 °C 54.5 °F /  12.5 °C 29.53in /  999.9hPa NE 4.4mph /  7.1km/h 11mph /  17.7km/h 86.5% 0.01in /  0.25mm 25 W/m2
18:19 58.2 °F /  14.6 °C 54.4 °F /  12.4 °C 29.53in /  999.9hPa NE 1.5mph /  2.4km/h 7mph /  11.3km/h 87% 0.01in /  0.25mm 23 W/m2
18:24 58 °F /  14.4 °C 54.2 °F /  12.3 °C 29.54in /  1000.2hPa NNE 4.5mph /  7.2km/h 11mph /  17.7km/h 87.2% 0.01in /  0.25mm 19 W/m2
18:29 57.7 °F /  14.3 °C 54.1 °F /  12.3 °C 29.54in /  1000.2hPa ENE 3.3mph /  5.3km/h 10mph /  16.1km/h 88% 0.01in /  0.25mm 16 W/m2
18:34 57.7 °F /  14.3 °C 54.1 °F /  12.3 °C 29.55in /  1000.6hPa NE 3.8mph /  6.1km/h 10mph /  16.1km/h 88% 0.01in /  0.25mm 12 W/m2
18:39 57.6 °F /  14.2 °C 54 °F /  12.2 °C 29.55in /  1000.6hPa NE 2.1mph /  3.4km/h 6mph /  9.7km/h 88% 0.01in /  0.25mm 9 W/m2
18:44 57.6 °F /  14.2 °C 54.3 °F /  12.4 °C 29.55in /  1000.6hPa NNE 3mph /  4.8km/h 8mph /  12.9km/h 89% 0.01in /  0.25mm 7 W/m2
18:49 57.5 °F /  14.2 °C 54.2 °F /  12.3 °C 29.56in /  1000.9hPa NNE 5mph /  8km/h 9mph /  14.5km/h 89% 0.01in /  0.25mm 0 W/m2
18:54 57.5 °F /  14.2 °C 54.2 °F /  12.3 °C 29.56in /  1000.9hPa North 3.3mph /  5.3km/h 9mph /  14.5km/h 89% 0.01in /  0.25mm 0 W/m2
18:59 57.6 °F /  14.2 °C 54.3 °F /  12.4 °C 29.57in /  1001.2hPa North 2.8mph /  4.5km/h 8mph /  12.9km/h 89% 0.01in /  0.25mm 0 W/m2
19:04 57.6 °F /  14.2 °C 54.3 °F /  12.4 °C 29.57in /  1001.2hPa North 2mph /  3.2km/h 8mph /  12.9km/h 89% 0.01in /  0.25mm 0 W/m2
19:09 57.6 °F /  14.2 °C 54.3 °F /  12.4 °C 29.58in /  1001.6hPa NNE 3.4mph /  5.5km/h 8mph /  12.9km/h 89% 0.00in /  0mm 0 W/m2
19:14 57.6 °F /  14.2 °C 54.3 °F /  12.4 °C 29.58in /  1001.6hPa NE 5.4mph /  8.7km/h 10mph /  16.1km/h 89% 0.00in /  0mm 0 W/m2
19:19 57.6 °F /  14.2 °C 54.3 °F /  12.4 °C 29.59in /  1001.9hPa NNE 4.9mph /  7.9km/h 11mph /  17.7km/h 89% 0.00in /  0mm 0 W/m2
19:24 57.3 °F /  14.1 °C 54.1 °F /  12.3 °C 29.59in /  1001.9hPa NE 5.9mph /  9.5km/h 13mph /  20.9km/h 89% 0.02in /  0.51mm 0 W/m2
19:29 56.8 °F /  13.8 °C 53.6 °F /  12 °C 29.60in /  1002.3hPa NE 4.8mph /  7.7km/h 13mph /  20.9km/h 89% 0.02in /  0.51mm 0 W/m2
19:34 56.3 °F /  13.5 °C 53.1 °F /  11.7 °C 29.60in /  1002.3hPa NE 4.6mph /  7.4km/h 11mph /  17.7km/h 89% 0.02in /  0.51mm 0 W/m2
19:39 55.9 °F /  13.3 °C 53 °F /  11.7 °C 29.61in /  1002.6hPa NNE 4.5mph /  7.2km/h 12mph /  19.3km/h 89.9% 0.02in /  0.51mm 0 W/m2
19:44 55.5 °F /  13.1 °C 52.6 °F /  11.4 °C 29.61in /  1002.6hPa NE 6.3mph /  10.1km/h 13mph /  20.9km/h 90% 0.02in /  0.51mm 0 W/m2
19:49 55.1 °F /  12.8 °C 52.2 °F /  11.2 °C 29.62in /  1002.9hPa NE 8.9mph /  14.3km/h 18mph /  29km/h 90% 0.02in /  0.51mm 0 W/m2
19:54 54.7 °F /  12.6 °C 51.8 °F /  11 °C 29.63in /  1003.3hPa NE 8.6mph /  13.8km/h 18mph /  29km/h 90% 0.02in /  0.51mm 0 W/m2
19:59 54.1 °F /  12.3 °C 51.2 °F /  10.7 °C 29.63in /  1003.3hPa NE 10.1mph /  16.3km/h 18mph /  29km/h 90% 0.02in /  0.51mm 0 W/m2
20:04 53.6 °F /  12 °C 50.6 °F /  10.3 °C 29.64in /  1003.6hPa NE 8.6mph /  13.8km/h 17mph /  27.4km/h 89.6% 0.02in /  0.51mm 0 W/m2
20:09 53.3 °F /  11.8 °C 50.1 °F /  10.1 °C 29.65in /  1003.9hPa NNE 9.6mph /  15.4km/h 19mph /  30.6km/h 89% 0.02in /  0.51mm 0 W/m2
20:14 53.1 °F /  11.7 °C 49.9 °F /  9.9 °C 29.65in /  1003.9hPa NE 7.4mph /  11.9km/h 16mph /  25.7km/h 89% 0.02in /  0.51mm 0 W/m2
20:19 53.1 °F /  11.7 °C 49.8 °F /  9.9 °C 29.65in /  1003.9hPa NE 6.3mph /  10.1km/h 14mph /  22.5km/h 89% 0.02in /  0.51mm 0 W/m2
20:24 53.1 °F /  11.7 °C 49.8 °F /  9.9 °C 29.65in /  1003.9hPa NE 6.1mph /  9.8km/h 14mph /  22.5km/h 89% 0.01in /  0.25mm 0 W/m2
20:29 53 °F /  11.7 °C 49.7 °F /  9.8 °C 29.66in /  1004.3hPa NNE 6.5mph /  10.5km/h 14mph /  22.5km/h 89% 0.00in /  0mm 0 W/m2
20:34 52.9 °F /  11.6 °C 49.6 °F /  9.8 °C 29.67in /  1004.6hPa NNE 9.5mph /  15.3km/h 17mph /  27.4km/h 89% 0.00in /  0mm 0 W/m2
20:39 52.9 °F /  11.6 °C 49.5 °F /  9.7 °C 29.67in /  1004.6hPa NE 9.1mph /  14.6km/h 21mph /  33.8km/h 88.2% 0.00in /  0mm 0 W/m2
20:44 52.7 °F /  11.5 °C 49.3 °F /  9.6 °C 29.68in /  1005hPa NE 8.1mph /  13km/h 19mph /  30.6km/h 88% 0.00in /  0mm 0 W/m2
20:49 52.7 °F /  11.5 °C 49.3 °F /  9.6 °C 29.68in /  1005hPa NNE 4.6mph /  7.4km/h 17mph /  27.4km/h 88% 0.00in /  0mm 0 W/m2
20:54 52.5 °F /  11.4 °C 49.1 °F /  9.5 °C 29.68in /  1005hPa NE 4.7mph /  7.6km/h 10mph /  16.1km/h 88% 0.00in /  0mm 0 W/m2
20:59 52.5 °F /  11.4 °C 49.1 °F /  9.5 °C 29.69in /  1005.3hPa NNE 4.9mph /  7.9km/h 11mph /  17.7km/h 88% 0.00in /  0mm 0 W/m2
21:04 52.4 °F /  11.3 °C 49 °F /  9.4 °C 29.70in /  1005.6hPa NNE 5.2mph /  8.4km/h 11mph /  17.7km/h 88% 0.00in /  0mm 0 W/m2
21:09 52.5 °F /  11.4 °C 49.1 °F /  9.5 °C 29.70in /  1005.6hPa NE 5.7mph /  9.2km/h 14mph /  22.5km/h 88% 0.00in /  0mm 0 W/m2
21:14 52.4 °F /  11.3 °C 48.8 °F /  9.3 °C 29.70in /  1005.6hPa NE 10.2mph /  16.4km/h 20mph /  32.2km/h 87.6% 0.00in /  0mm 0 W/m2
21:19 52.3 °F /  11.3 °C 48.6 °F /  9.2 °C 29.70in /  1005.6hPa NE 6.8mph /  10.9km/h 17mph /  27.4km/h 87% 0.00in /  0mm 0 W/m2
21:24 52.2 °F /  11.2 °C 48.4 °F /  9.1 °C 29.70in /  1005.6hPa NE 5.4mph /  8.7km/h 12mph /  19.3km/h 87% 0.00in /  0mm 0 W/m2
21:29 52.2 °F /  11.2 °C 48.4 °F /  9.1 °C 29.71in /  1006hPa NNE 6.5mph /  10.5km/h 15mph /  24.1km/h 87% 0.00in /  0mm 0 W/m2
21:34 52.2 °F /  11.2 °C 48.4 °F /  9.1 °C 29.72in /  1006.3hPa NNE 6.8mph /  10.9km/h 16mph /  25.7km/h 87% 0.00in /  0mm 0 W/m2
21:39 52.1 °F /  11.2 °C 48.3 °F /  9.1 °C 29.72in /  1006.3hPa NE 7.4mph /  11.9km/h 14mph /  22.5km/h 87% 0.00in /  0mm 0 W/m2
21:44 51.8 °F /  11 °C 48 °F /  8.9 °C 29.73in /  1006.7hPa NE 9.2mph /  14.8km/h 20mph /  32.2km/h 87% 0.00in /  0mm 0 W/m2
21:49 51.8 °F /  11 °C 48 °F /  8.9 °C 29.73in /  1006.7hPa NE 6.1mph /  9.8km/h 14mph /  22.5km/h 87% 0.00in /  0mm 0 W/m2
21:54 51.7 °F /  10.9 °C 47.7 °F /  8.7 °C 29.73in /  1006.7hPa NE 9.1mph /  14.6km/h 22mph /  35.4km/h 86.4% 0.00in /  0mm 0 W/m2
21:59 51.4 °F /  10.8 °C 47.5 °F /  8.6 °C 29.74in /  1007hPa NNE 9.3mph /  15km/h 22mph /  35.4km/h 86% 0.00in /  0mm 0 W/m2
22:04 51.3 °F /  10.7 °C 47.3 °F /  8.5 °C 29.75in /  1007.3hPa NE 8.3mph /  13.4km/h 18mph /  29km/h 86% 0.00in /  0mm 0 W/m2
22:09 51.2 °F /  10.7 °C 47.2 °F /  8.4 °C 29.75in /  1007.3hPa NE 6.7mph /  10.8km/h 18mph /  29km/h 86% 0.00in /  0mm 0 W/m2
22:14 51 °F /  10.6 °C 47 °F /  8.3 °C 29.75in /  1007.3hPa NNE 4.9mph /  7.9km/h 13mph /  20.9km/h 86% 0.00in /  0mm 0 W/m2
22:19 50.9 °F /  10.5 °C 46.9 °F /  8.3 °C 29.75in /  1007.3hPa NE 6.5mph /  10.5km/h 11mph /  17.7km/h 86% 0.00in /  0mm 0 W/m2
22:24 50.7 °F /  10.4 °C 46.6 °F /  8.1 °C 29.76in /  1007.7hPa NE 5.4mph /  8.7km/h 11mph /  17.7km/h 85.4% 0.00in /  0mm 0 W/m2
22:29 50.7 °F /  10.4 °C 46.4 °F /  8 °C 29.76in /  1007.7hPa NNE 5mph /  8km/h 14mph /  22.5km/h 85% 0.00in /  0mm 0 W/m2
22:34 50.6 °F /  10.3 °C 46.1 °F /  7.8 °C 29.77in /  1008hPa NNE 4.7mph /  7.6km/h 14mph /  22.5km/h 84.3% 0.00in /  0mm 0 W/m2
22:39 50.7 °F /  10.4 °C 46 °F /  7.8 °C 29.77in /  1008hPa NNE 4mph /  6.4km/h 12mph /  19.3km/h 84% 0.00in /  0mm 0 W/m2
22:44 50.7 °F /  10.4 °C 46 °F /  7.8 °C 29.78in /  1008.4hPa NNE 3.6mph /  5.8km/h 9mph /  14.5km/h 84% 0.00in /  0mm 0 W/m2
22:49 50.6 °F /  10.3 °C 46 °F /  7.8 °C 29.78in /  1008.4hPa NNE 4.7mph /  7.6km/h 10mph /  16.1km/h 84% 0.00in /  0mm 0 W/m2
22:54 50.6 °F /  10.3 °C 45.8 °F /  7.7 °C 29.78in /  1008.4hPa NNE 4.1mph /  6.6km/h 11mph /  17.7km/h 83.5% 0.00in /  0mm 0 W/m2
22:59 50.6 °F /  10.3 °C 45.6 °F /  7.6 °C 29.79in /  1008.7hPa NNE 5.2mph /  8.4km/h 11mph /  17.7km/h 83% 0.00in /  0mm 0 W/m2
23:04 50.5 °F /  10.3 °C 45.5 °F /  7.5 °C 29.79in /  1008.7hPa NNE 4.2mph /  6.8km/h 8mph /  12.9km/h 83% 0.00in /  0mm 0 W/m2
23:09 50.5 °F /  10.3 °C 45.5 °F /  7.5 °C 29.80in /  1009hPa NNE 4.1mph /  6.6km/h 10mph /  16.1km/h 83% 0.00in /  0mm 0 W/m2
23:14 50.5 °F /  10.3 °C 45.5 °F /  7.5 °C 29.80in /  1009hPa NNE 2.6mph /  4.2km/h 9mph /  14.5km/h 83% 0.00in /  0mm 0 W/m2
23:19 50.5 °F /  10.3 °C 45.5 °F /  7.5 °C 29.80in /  1009hPa NNE 2.4mph /  3.9km/h 6mph /  9.7km/h 83% 0.00in /  0mm 0 W/m2
23:24 50.5 °F /  10.3 °C 45.8 °F /  7.7 °C 29.80in /  1009hPa North 2.6mph /  4.2km/h 9mph /  14.5km/h 83.7% 0.00in /  0mm 0 W/m2
23:29 50.4 °F /  10.2 °C 45.8 °F /  7.7 °C 29.81in /  1009.4hPa North 3mph /  4.8km/h 8mph /  12.9km/h 84% 0.00in /  0mm 0 W/m2
23:34 50.4 °F /  10.2 °C 45.7 °F /  7.6 °C 29.81in /  1009.4hPa NNE 3.5mph /  5.6km/h 9mph /  14.5km/h 84% 0.00in /  0mm 0 W/m2
23:39 50.1 °F /  10.1 °C 45.6 °F /  7.6 °C 29.82in /  1009.7hPa NNE 3.8mph /  6.1km/h 9mph /  14.5km/h 84.6% 0.00in /  0mm 0 W/m2
23:44 50 °F /  10 °C 45.7 °F /  7.6 °C 29.82in /  1009.7hPa North 5.1mph /  8.2km/h 11mph /  17.7km/h 85% 0.00in /  0mm 0 W/m2
23:49 49.9 °F /  9.9 °C 45.6 °F /  7.6 °C 29.82in /  1009.7hPa North 6.3mph /  10.1km/h 11mph /  17.7km/h 85% 0.00in /  0mm 0 W/m2
23:54 49.8 °F /  9.9 °C 45.5 °F /  7.5 °C 29.82in /  1009.7hPa NNE 5mph /  8km/h 15mph /  24.1km/h 85% 0.00in /  0mm 0 W/m2
23:59 49.8 °F /  9.9 °C 45.5 °F /  7.5 °C 29.83in /  1010hPa NNE 5.7mph /  9.2km/h 10mph /  16.1km/h 85% 0.00in /  0mm 0 W/m2
Bath Spa Weather
Compliments of Weather Underground - 2 mb